Chattanooga, TN (37424)

11:42 AM EDT on September 18, 2014 (GMT -0400)
Holly Hills | Change Station
CLOSE
Current Station
Personal Weather Station
Location: Chattanooga, TN
Elevation: 797 ft
Nearby Weather Stations

Elev 797 ft 35.04 °N, 85.13 °W | Updated 1 second ago

Scattered Clouds
Scattered Clouds
75.2 °F
Feels Like 77 °F
N
2.2
Wind Variable Wind from NNW

Today
High -- | Low -- °F
--% Chance of Precip.
Yesterday
High -- | Low -- °F
Precip. -- in
7:25 AM 7:43 PM
Waning Crescent, 26% visible
Pressure 30.01 in
Visibility 10.0 miles
Clouds Few 7000 ft
Few 9500 ft
Scattered Clouds 25000 ft
Heat Index 77 °F
Dew Point 61 °F
Humidity 62%
Rainfall 0.00 in
Snow Depth Not available.
UV 4 out of 12
Pollen 7.10 out of 12
Ozone Good
PM2.5 Moderate
Flu Activity Not available.
METAR KCHA 181453Z 04006KT 10SM FEW070 FEW095 SCT250 23/14 A3002 RMK AO2 SLP161 T02280139 51005

More Conditions Fewer Conditions

Pressure 30.01 in
Visibility 10.0 miles
Clouds Few 7000 ft
Few 9500 ft
Scattered Clouds 25000 ft
Heat Index 77 °F
Dew Point 61 °F
Humidity 62%
Rainfall 0.00 in
Snow Depth Not available.
UV 4 out of 12
Pollen 7.10 out of 12
Ozone Good
PM2.5 Moderate
Flu Activity Not available.
METAR KCHA 181453Z 04006KT 10SM FEW070 FEW095 SCT250 23/14 A3002 RMK AO2 SLP161 T02280139 51005

More Conditions Fewer Conditions

10-Day Weather Forecast

Almanac

Astronomy

Sep. 18, 2014 Rise Set
Actual Time 7:25 AM EDT 7:43 PM EDT
Civil Twilight 7:00 AM EDT 8:08 PM EDT
Nautical Twilight 6:30 AM EDT 8:38 PM EDT
Astronomical Twilight 6:00 AM EDT 9:08 PM EDT
Moon 2:25 AM EDT 4:25 PM EDT
Length of Visible Light 13h 08m
Length of Day
12h 17m
Tomorrow will be 2m 10s shorter.
Waning Crescent, 26% of the Moon is Illuminated
Today
Waning Crescent
Sep 24
New
Oct 1
First Quarter
Oct 8
Full
Oct 15
Last Quarter

Today's Extremes

State Highs State Lows

Community

WunderPhotos

Upload Photos

1,754,388 photos uploaded!

Nearby

Air Quality

  Air Quality AQ Index Pollutant
Yesterday Good
PM2.5
Yesterday Good
OZONE
Current Moderate
PM2.5
Current Good
OZONE
Thursday Good
PM2.5
Thursday Good
OZONE
Friday Good
PM2.5
Friday Good
OZONE

Snow Depth

Station Depth Elevation
No new snow has been reported.

Earthquake Activity

City Distance Mag. Time & Date
No recent earthquake activity has been reported nearby.
Minimum magnitude displayed is 2.5.

Coastal Water Temperatures

Place Temperature
No Stations Reporting

Nearby Weather Stations